createdAt,value
2018-11-11T00:00:14.386Z,2.80
2018-11-11T00:01:21.287Z,3.70
2018-11-11T00:02:28.103Z,4.50
2018-11-11T00:03:34.919Z,3.10
2018-11-11T00:04:41.769Z,2.90
2018-11-11T00:05:48.491Z,2.90
2018-11-11T00:06:55.405Z,3.10
2018-11-11T00:08:02.158Z,2.60
2018-11-11T00:09:09.166Z,2.80
2018-11-11T00:10:16.174Z,2.50
2018-11-11T00:11:22.906Z,2.90
2018-11-11T00:12:29.630Z,2.80
2018-11-11T00:13:36.405Z,3.10
2018-11-11T00:14:43.172Z,2.90
2018-11-11T00:15:49.974Z,2.60
2018-11-11T00:16:56.763Z,3.10
2018-11-11T00:18:03.525Z,3.40
2018-11-11T00:19:10.287Z,2.70
2018-11-11T00:20:17.085Z,3.10
2018-11-11T00:21:23.946Z,2.60
2018-11-11T00:22:30.867Z,3.10
2018-11-11T00:23:37.666Z,2.50
2018-11-11T00:24:44.600Z,2.30
2018-11-11T00:25:51.415Z,2.60
2018-11-11T00:26:58.160Z,2.20
2018-11-11T00:28:04.993Z,2.80
2018-11-11T00:29:11.849Z,3.90
2018-11-11T00:30:18.702Z,2.60
2018-11-11T00:31:25.687Z,2.50
2018-11-11T00:32:32.516Z,2.50
2018-11-11T00:33:39.386Z,2.70
2018-11-11T00:34:46.275Z,2.60
2018-11-11T00:35:53.081Z,2.50
2018-11-11T00:36:59.979Z,4.80
2018-11-11T00:38:06.804Z,3.50
2018-11-11T00:39:14.574Z,2.30
2018-11-11T00:40:20.465Z,2.50
2018-11-11T00:41:27.326Z,3.10
2018-11-11T00:42:34.122Z,2.90
2018-11-11T00:43:40.878Z,4.10
2018-11-11T00:44:47.672Z,4.50
2018-11-11T00:45:54.552Z,2.20
2018-11-11T00:47:01.367Z,3.20
2018-11-11T00:48:08.477Z,2.10
2018-11-11T00:49:15.232Z,2.80
2018-11-11T00:50:22.072Z,3.60
2018-11-11T00:51:28.879Z,4.80
2018-11-11T00:52:35.694Z,2.90
2018-11-11T00:53:42.557Z,4.20
2018-11-11T00:54:49.383Z,4.60
2018-11-11T00:55:56.105Z,2.30
2018-11-11T00:57:02.877Z,2.30
2018-11-11T00:58:09.747Z,2.50
2018-11-11T00:59:16.686Z,2.30
2018-11-11T01:00:23.453Z,3.20
2018-11-11T01:01:30.293Z,2.10
2018-11-11T01:02:37.082Z,2.20
2018-11-11T01:03:43.924Z,2.50
2018-11-11T01:04:50.826Z,2.30
2018-11-11T01:05:57.597Z,2.10
2018-11-11T01:07:04.415Z,2.20
2018-11-11T01:08:11.218Z,2.70
2018-11-11T01:09:17.998Z,2.50
2018-11-11T01:10:24.782Z,2.60
2018-11-11T01:11:31.506Z,4.50
2018-11-11T01:12:38.286Z,4.50
2018-11-11T01:13:45.279Z,2.70
2018-11-11T01:14:52.123Z,3.60
2018-11-11T01:15:58.905Z,2.30
2018-11-11T01:17:05.637Z,2.50
2018-11-11T01:18:12.746Z,2.80
2018-11-11T01:19:19.502Z,3.30
2018-11-11T01:20:26.301Z,4.80
2018-11-11T01:21:33.018Z,2.40
2018-11-11T01:22:39.747Z,3.00
2018-11-11T01:23:46.573Z,3.10
2018-11-11T01:24:53.342Z,3.20
2018-11-11T01:26:00.088Z,3.80
2018-11-11T01:27:07.114Z,2.80
2018-11-11T01:28:13.871Z,4.70
2018-11-11T01:29:20.658Z,3.10
2018-11-11T01:30:27.503Z,2.50
2018-11-11T01:31:34.202Z,2.70
2018-11-11T01:32:40.910Z,3.30
2018-11-11T01:33:47.618Z,2.40
2018-11-11T01:34:54.346Z,2.70
2018-11-11T01:36:01.223Z,4.80
2018-11-11T01:37:08.354Z,2.80
2018-11-11T01:38:15.091Z,2.60
2018-11-11T01:39:21.814Z,3.20
2018-11-11T01:40:28.587Z,3.90
2018-11-11T01:41:35.387Z,5.70
2018-11-11T01:42:42.289Z,2.70
2018-11-11T01:43:49.156Z,2.90
2018-11-11T01:44:55.921Z,2.30
2018-11-11T01:46:02.654Z,2.50
2018-11-11T01:47:09.390Z,2.40
2018-11-11T01:48:16.174Z,4.10
2018-11-11T01:49:22.879Z,3.80
2018-11-11T01:50:29.644Z,4.40
2018-11-11T01:51:36.383Z,3.90
2018-11-11T01:52:43.223Z,3.10
2018-11-11T01:53:50.040Z,3.20
2018-11-11T01:54:56.845Z,3.40
2018-11-11T01:56:03.653Z,2.40
2018-11-11T01:57:10.422Z,2.80
2018-11-11T01:58:17.212Z,3.10
2018-11-11T01:59:23.970Z,3.20
2018-11-11T02:00:30.738Z,3.40
2018-11-11T02:01:37.523Z,5.40
2018-11-11T02:02:44.378Z,4.50
2018-11-11T02:03:51.358Z,3.10
2018-11-11T02:04:58.142Z,2.30
2018-11-11T02:06:04.945Z,3.30
2018-11-11T02:07:11.712Z,2.70
2018-11-11T02:08:18.563Z,2.40
2018-11-11T02:09:25.323Z,2.40
2018-11-11T02:10:32.095Z,2.30
2018-11-11T02:11:38.967Z,2.70
2018-11-11T02:12:45.860Z,4.70
2018-11-11T02:13:52.619Z,2.60
2018-11-11T02:14:59.412Z,3.10
2018-11-11T02:16:06.271Z,2.20
2018-11-11T02:17:13.172Z,3.80
2018-11-11T02:18:19.983Z,2.40
2018-11-11T02:19:26.872Z,3.10
2018-11-11T02:20:33.686Z,2.70
2018-11-11T02:21:40.564Z,2.70
2018-11-11T02:22:47.382Z,3.50
2018-11-11T02:23:54.342Z,3.10
2018-11-11T02:25:01.150Z,2.90
2018-11-11T02:26:07.898Z,7.10
2018-11-11T02:27:14.629Z,3.30
2018-11-11T02:28:21.393Z,2.60
2018-11-11T02:29:28.236Z,3.80
2018-11-11T02:30:35.038Z,4.90
2018-11-11T02:31:41.828Z,3.80
2018-11-11T02:32:48.617Z,4.40
2018-11-11T02:33:55.374Z,2.90
2018-11-11T02:35:02.137Z,2.30
2018-11-11T02:36:09.286Z,2.80
2018-11-11T02:37:16.204Z,2.70
2018-11-11T02:38:22.961Z,2.50
2018-11-11T02:39:29.719Z,6.30
2018-11-11T02:40:36.577Z,2.60
2018-11-11T02:41:43.333Z,3.10
2018-11-11T02:42:50.150Z,2.90
2018-11-11T02:43:57.006Z,2.60
2018-11-11T02:45:03.856Z,2.60
2018-11-11T02:46:10.853Z,4.40
2018-11-11T02:47:17.657Z,6.10
2018-11-11T02:48:24.543Z,3.70
2018-11-11T02:49:31.310Z,4.70
2018-11-11T02:50:38.154Z,2.40
2018-11-11T02:51:44.973Z,3.30
2018-11-11T02:52:51.882Z,2.30
2018-11-11T02:53:58.776Z,3.90
2018-11-11T02:55:05.847Z,2.70
2018-11-11T02:56:12.554Z,2.90
2018-11-11T02:57:19.365Z,3.40
2018-11-11T02:58:26.142Z,6.20
2018-11-11T02:59:32.983Z,2.90
2018-11-11T03:00:39.791Z,2.90
2018-11-11T03:01:46.680Z,2.30
2018-11-11T03:02:53.547Z,3.30
2018-11-11T03:04:00.435Z,5.40
2018-11-11T03:05:07.289Z,2.60
2018-11-11T03:06:14.402Z,2.70
2018-11-11T03:07:20.848Z,2.70
2018-11-11T03:08:27.671Z,2.80
2018-11-11T03:09:34.442Z,2.90
2018-11-11T03:10:41.233Z,3.20
2018-11-11T03:11:48.059Z,3.50
2018-11-11T03:12:54.819Z,3.80
2018-11-11T03:14:01.654Z,2.90
2018-11-11T03:15:08.586Z,3.20
2018-11-11T03:16:15.514Z,4.80
2018-11-11T03:17:22.334Z,4.20
2018-11-11T03:18:29.166Z,3.20
2018-11-11T03:19:35.906Z,2.50
2018-11-11T03:20:42.710Z,3.30
2018-11-11T03:21:49.595Z,4.00
2018-11-11T03:22:56.349Z,2.60
2018-11-11T03:24:03.111Z,2.70
2018-11-11T03:25:09.882Z,2.50
2018-11-11T03:26:16.978Z,2.20
2018-11-11T03:27:23.774Z,2.90
2018-11-11T03:28:30.587Z,2.80
2018-11-11T03:29:37.358Z,3.30
2018-11-11T03:30:44.175Z,3.10
2018-11-11T03:31:50.990Z,2.60
2018-11-11T03:32:57.766Z,3.00
2018-11-11T03:34:04.575Z,2.50
2018-11-11T03:35:11.350Z,3.30
2018-11-11T03:36:18.357Z,5.30
2018-11-11T03:37:25.474Z,3.60
2018-11-11T03:38:32.218Z,3.40
2018-11-11T03:39:38.982Z,3.20
2018-11-11T03:40:45.717Z,3.50
2018-11-11T03:41:52.477Z,4.30
2018-11-11T03:42:59.251Z,3.20
2018-11-11T03:44:06.010Z,2.60
2018-11-11T03:45:12.862Z,2.70
2018-11-11T03:46:20.012Z,8.00
2018-11-11T03:47:27.137Z,3.30
2018-11-11T03:48:33.927Z,2.80
2018-11-11T03:49:40.693Z,2.80
2018-11-11T03:50:47.514Z,2.80
2018-11-11T03:51:54.294Z,2.80
2018-11-11T03:53:01.041Z,4.40
2018-11-11T03:54:07.818Z,2.70
2018-11-11T03:55:14.630Z,2.40
2018-11-11T03:56:21.674Z,4.50
2018-11-11T03:57:28.459Z,2.50
2018-11-11T03:58:35.262Z,4.70
2018-11-11T03:59:42.087Z,4.70
2018-11-11T04:00:48.835Z,3.10
2018-11-11T04:01:55.590Z,2.40
2018-11-11T04:03:02.326Z,3.00
2018-11-11T04:04:09.136Z,2.30
2018-11-11T04:05:16.372Z,4.20
2018-11-11T04:06:22.650Z,3.00
2018-11-11T04:07:29.413Z,2.70
2018-11-11T04:08:36.223Z,2.70
2018-11-11T04:09:43.015Z,2.60
2018-11-11T04:10:49.849Z,2.90
2018-11-11T04:11:56.579Z,3.20
2018-11-11T04:13:03.342Z,2.80
2018-11-11T04:14:10.135Z,3.20
2018-11-11T04:15:17.009Z,2.50
2018-11-11T04:16:23.769Z,4.10
2018-11-11T04:17:30.632Z,2.50
2018-11-11T04:18:37.416Z,3.20
2018-11-11T04:19:44.203Z,2.70
2018-11-11T04:20:51.023Z,2.10
2018-11-11T04:21:57.854Z,2.50
2018-11-11T04:23:04.859Z,2.80
2018-11-11T04:24:11.662Z,2.50
2018-11-11T04:25:18.519Z,2.20
2018-11-11T04:26:25.395Z,1.90
2018-11-11T04:27:32.230Z,2.40
2018-11-11T04:28:38.986Z,2.30
2018-11-11T04:29:45.794Z,2.40
2018-11-11T04:30:52.641Z,3.00
2018-11-11T04:31:59.569Z,4.50
2018-11-11T04:33:06.358Z,2.90
2018-11-11T04:34:13.111Z,2.20
2018-11-11T04:35:19.977Z,2.70
2018-11-11T04:36:26.761Z,3.30
2018-11-11T04:37:33.643Z,1.90
2018-11-11T04:38:40.419Z,2.40
2018-11-11T04:39:47.190Z,3.30
2018-11-11T04:40:53.987Z,4.00
2018-11-11T04:42:00.792Z,3.60
2018-11-11T04:43:07.671Z,3.20
2018-11-11T04:44:14.424Z,1.80
2018-11-11T04:45:21.229Z,6.20
2018-11-11T04:46:28.023Z,2.30
2018-11-11T04:47:34.825Z,2.10
2018-11-11T04:48:41.642Z,2.20
2018-11-11T04:49:48.450Z,3.90
2018-11-11T04:50:55.255Z,5.10
2018-11-11T04:52:02.047Z,3.90
2018-11-11T04:53:09.084Z,3.00
2018-11-11T04:54:15.878Z,2.30
2018-11-11T04:55:22.663Z,2.20
2018-11-11T04:56:29.569Z,3.00
2018-11-11T04:57:36.295Z,3.40
2018-11-11T04:58:43.178Z,4.20
2018-11-11T04:59:49.999Z,2.20
2018-11-11T05:00:56.775Z,2.20
2018-11-11T05:02:03.582Z,3.20
2018-11-11T05:03:14.614Z,2.00
2018-11-11T05:04:17.350Z,2.20
2018-11-11T05:05:24.075Z,2.50
2018-11-11T05:06:30.846Z,2.70
2018-11-11T05:07:37.658Z,2.40
2018-11-11T05:08:44.806Z,3.40
2018-11-11T05:09:51.588Z,2.30
2018-11-11T05:10:58.366Z,2.50
2018-11-11T05:12:05.141Z,3.00
2018-11-11T05:13:11.864Z,2.60
2018-11-11T05:14:18.662Z,2.90
2018-11-11T05:15:25.438Z,2.90
2018-11-11T05:16:32.227Z,2.80
2018-11-11T05:17:39.030Z,2.20
2018-11-11T05:18:45.860Z,2.60
2018-11-11T05:19:52.603Z,3.90
2018-11-11T05:20:59.354Z,4.10
2018-11-11T05:22:06.067Z,2.00
2018-11-11T05:23:12.960Z,2.20
2018-11-11T05:24:19.762Z,2.00
2018-11-11T05:25:26.491Z,4.80
2018-11-11T05:26:33.327Z,2.40
2018-11-11T05:27:40.294Z,3.00
2018-11-11T05:28:47.374Z,2.90
2018-11-11T05:29:54.219Z,4.20
2018-11-11T05:31:00.949Z,2.40
2018-11-11T05:32:07.751Z,3.30
2018-11-11T05:33:14.630Z,1.60
2018-11-11T05:34:21.372Z,2.20
2018-11-11T05:35:28.095Z,4.30
2018-11-11T05:36:34.884Z,4.40
2018-11-11T05:37:41.670Z,2.60
2018-11-11T05:38:48.798Z,3.70
2018-11-11T05:39:55.542Z,3.60
2018-11-11T05:41:02.298Z,2.60
2018-11-11T05:42:09.231Z,3.50
2018-11-11T05:43:15.974Z,2.10
2018-11-11T05:44:22.799Z,2.30
2018-11-11T05:45:29.634Z,2.10
2018-11-11T05:46:36.434Z,6.80
2018-11-11T05:47:43.391Z,2.10
2018-11-11T05:48:50.150Z,2.90
2018-11-11T05:49:56.911Z,3.60
2018-11-11T05:51:03.673Z,3.00
2018-11-11T05:52:10.501Z,2.10
2018-11-11T05:53:17.311Z,1.70
2018-11-11T05:54:24.198Z,2.00
2018-11-11T05:55:31.076Z,3.70
2018-11-11T05:56:37.942Z,4.40
2018-11-11T05:57:44.775Z,4.30
2018-11-11T05:58:51.609Z,1.90
2018-11-11T05:59:58.379Z,2.60
2018-11-11T06:01:05.137Z,1.80
2018-11-11T06:02:11.960Z,3.30
2018-11-11T06:03:18.745Z,1.90
2018-11-11T06:04:25.534Z,3.80
2018-11-11T06:05:32.254Z,3.40
2018-11-11T06:06:39.023Z,3.40
2018-11-11T06:07:45.840Z,2.80
2018-11-11T06:08:52.591Z,1.70
2018-11-11T06:09:59.356Z,3.70
2018-11-11T06:11:06.169Z,2.80
2018-11-11T06:12:13.028Z,2.20
2018-11-11T06:13:19.809Z,3.90
2018-11-11T06:14:26.611Z,2.10
2018-11-11T06:15:33.463Z,3.60
2018-11-11T06:16:40.254Z,1.70
2018-11-11T06:17:46.983Z,2.20
2018-11-11T06:18:53.727Z,2.80
2018-11-11T06:20:00.541Z,3.90
2018-11-11T06:21:07.658Z,3.10
2018-11-11T06:22:14.401Z,2.90
2018-11-11T06:23:21.145Z,1.90
2018-11-11T06:24:27.961Z,2.80
2018-11-11T06:25:34.779Z,3.50
2018-11-11T06:26:41.521Z,1.90
2018-11-11T06:27:48.358Z,3.00
2018-11-11T06:28:55.110Z,2.20
2018-11-11T06:30:02.042Z,3.90
2018-11-11T06:31:08.742Z,3.30
2018-11-11T06:32:15.487Z,3.20
2018-11-11T06:33:22.186Z,3.00
2018-11-11T06:34:28.984Z,3.20
2018-11-11T06:35:35.866Z,2.10
2018-11-11T06:36:42.638Z,3.10
2018-11-11T06:37:49.431Z,2.60
2018-11-11T06:38:56.367Z,1.90
2018-11-11T06:40:03.141Z,3.50
2018-11-11T06:41:09.994Z,2.80
2018-11-11T06:42:16.795Z,2.20
2018-11-11T06:43:23.640Z,2.70
2018-11-11T06:44:30.513Z,1.80
2018-11-11T06:45:37.470Z,3.40
2018-11-11T06:46:44.278Z,3.10
2018-11-11T06:47:51.106Z,2.80
2018-11-11T06:48:58.207Z,2.50
2018-11-11T06:50:05.155Z,1.80
2018-11-11T06:51:11.951Z,2.90
2018-11-11T06:52:18.866Z,1.80
2018-11-11T06:53:25.719Z,2.60
2018-11-11T06:54:32.586Z,2.70
2018-11-11T06:55:39.369Z,3.20
2018-11-11T06:56:46.249Z,2.60
2018-11-11T06:57:53.055Z,3.20
2018-11-11T06:59:00.634Z,2.40
2018-11-11T07:00:06.985Z,1.70
2018-11-11T07:01:13.955Z,2.00
2018-11-11T07:02:20.862Z,2.90
2018-11-11T07:03:27.827Z,2.50
2018-11-11T07:04:34.555Z,1.80
2018-11-11T07:05:41.307Z,2.40
2018-11-11T07:06:48.201Z,5.00
2018-11-11T07:07:54.989Z,2.50
2018-11-11T07:09:01.835Z,3.30
2018-11-11T07:10:08.673Z,3.40
2018-11-11T07:11:15.593Z,5.70
2018-11-11T07:12:22.752Z,3.90
2018-11-11T07:13:29.641Z,6.30
2018-11-11T07:14:36.484Z,3.90
2018-11-11T07:15:43.336Z,4.60
2018-11-11T07:16:50.221Z,4.90
2018-11-11T07:17:57.046Z,5.40
2018-11-11T07:19:03.834Z,5.20
2018-11-11T07:20:10.735Z,5.30
2018-11-11T07:21:17.646Z,4.90
2018-11-11T07:22:24.454Z,4.40
2018-11-11T07:23:31.247Z,9.10
2018-11-11T07:24:38.022Z,4.90
2018-11-11T07:25:44.863Z,4.80
2018-11-11T07:26:51.687Z,4.50
2018-11-11T07:27:58.584Z,4.40
2018-11-11T07:29:05.383Z,3.80
2018-11-11T07:30:12.481Z,4.20
2018-11-11T07:31:19.324Z,4.00
2018-11-11T07:32:26.209Z,3.90
2018-11-11T07:33:33.210Z,2.50
2018-11-11T07:34:40.087Z,6.30
2018-11-11T07:35:46.921Z,5.40
2018-11-11T07:36:53.746Z,5.70
2018-11-11T07:38:00.771Z,2.80
2018-11-11T07:39:07.738Z,2.00
2018-11-11T07:40:14.735Z,3.70
2018-11-11T07:41:21.598Z,3.20
2018-11-11T07:42:28.469Z,4.20
2018-11-11T07:43:35.286Z,2.00
2018-11-11T07:44:42.250Z,2.80
2018-11-11T07:45:49.252Z,6.50
2018-11-11T07:46:55.855Z,2.10
2018-11-11T07:48:02.729Z,2.70
2018-11-11T07:49:09.655Z,4.30
2018-11-11T07:50:16.430Z,2.60
2018-11-11T07:51:23.272Z,4.90
2018-11-11T07:52:30.062Z,3.90
2018-11-11T07:53:36.877Z,2.20
2018-11-11T07:54:43.778Z,2.50
2018-11-11T07:55:50.628Z,3.00
2018-11-11T07:56:57.401Z,5.30
2018-11-11T07:58:04.459Z,2.90
2018-11-11T07:59:11.395Z,3.30
2018-11-11T08:00:18.224Z,3.90
2018-11-11T08:01:25.022Z,4.00
2018-11-11T08:02:31.855Z,4.20
2018-11-11T08:03:38.671Z,3.40
2018-11-11T08:04:46.362Z,3.90
2018-11-11T08:05:52.171Z,3.10
2018-11-11T08:06:59.035Z,2.40
2018-11-11T08:08:05.827Z,4.90
2018-11-11T08:09:12.614Z,2.60
2018-11-11T08:10:19.487Z,3.70
2018-11-11T08:11:26.446Z,2.20
2018-11-11T08:12:33.584Z,3.10
2018-11-11T08:13:40.425Z,2.30
2018-11-11T08:14:47.254Z,3.70
2018-11-11T08:15:54.107Z,1.90
2018-11-11T08:17:00.954Z,6.40
2018-11-11T08:18:07.868Z,3.40
2018-11-11T08:19:14.730Z,3.20
2018-11-11T08:20:21.538Z,2.30
2018-11-11T08:21:28.326Z,2.90
2018-11-11T08:22:35.251Z,2.70
2018-11-11T08:23:43.150Z,4.30
2018-11-11T08:24:48.973Z,5.50
2018-11-11T08:25:55.824Z,2.30
2018-11-11T08:27:02.694Z,3.90
2018-11-11T08:28:09.592Z,2.60
2018-11-11T08:29:16.422Z,3.90
2018-11-11T08:30:27.198Z,3.50
2018-11-11T08:31:30.536Z,2.30
2018-11-11T08:32:37.362Z,2.20
2018-11-11T08:33:44.318Z,2.90
2018-11-11T08:34:51.160Z,3.90
2018-11-11T08:35:58.043Z,3.40
2018-11-11T08:37:04.879Z,5.20
2018-11-11T08:38:11.681Z,7.20
2018-11-11T08:39:18.470Z,5.70
2018-11-11T08:40:25.366Z,5.60
2018-11-11T08:41:32.225Z,3.40
2018-11-11T08:42:39.022Z,3.30
2018-11-11T08:43:45.827Z,3.90
2018-11-11T08:44:52.630Z,2.00
2018-11-11T08:45:59.451Z,4.50
2018-11-11T08:47:06.419Z,2.40
2018-11-11T08:48:13.340Z,2.30
2018-11-11T08:49:20.178Z,2.60
2018-11-11T08:50:27.007Z,2.10
2018-11-11T08:51:33.795Z,2.90
2018-11-11T08:52:40.603Z,2.80
2018-11-11T08:53:47.753Z,6.10
2018-11-11T08:54:54.621Z,5.10
2018-11-11T08:56:01.515Z,3.30
2018-11-11T08:57:08.247Z,3.20
2018-11-11T08:58:15.054Z,3.80
2018-11-11T08:59:21.920Z,3.70
2018-11-11T09:00:28.805Z,2.30
2018-11-11T09:01:35.674Z,4.00
2018-11-11T09:02:42.497Z,2.30
2018-11-11T09:03:49.336Z,3.10
2018-11-11T09:04:56.481Z,4.40
2018-11-11T09:06:03.280Z,3.30
2018-11-11T09:07:10.094Z,3.70
2018-11-11T09:08:16.843Z,2.60
2018-11-11T09:09:23.613Z,2.70
2018-11-11T09:10:30.417Z,3.40
2018-11-11T09:11:37.322Z,3.40
2018-11-11T09:12:44.130Z,3.60
2018-11-11T09:13:50.932Z,3.30
2018-11-11T09:14:57.794Z,2.70
2018-11-11T09:16:04.594Z,4.30
2018-11-11T09:17:11.396Z,4.90
2018-11-11T09:18:18.234Z,6.70
2018-11-11T09:19:25.030Z,3.40
2018-11-11T09:20:31.829Z,3.40
2018-11-11T09:21:38.611Z,3.00
2018-11-11T09:22:45.357Z,3.00
2018-11-11T09:23:52.213Z,3.80
2018-11-11T09:24:59.026Z,3.20
2018-11-11T09:26:05.811Z,2.90
2018-11-11T09:27:12.643Z,3.00
2018-11-11T09:28:19.566Z,6.50
2018-11-11T09:29:26.445Z,3.20
2018-11-11T09:30:33.290Z,3.80
2018-11-11T09:31:39.979Z,4.00
2018-11-11T09:32:46.724Z,5.20
2018-11-11T09:33:53.642Z,3.70
2018-11-11T09:35:00.424Z,5.70
2018-11-11T09:36:07.165Z,3.40
2018-11-11T09:37:14.321Z,5.50
2018-11-11T09:38:21.205Z,4.00
2018-11-11T09:39:27.996Z,4.10
2018-11-11T09:40:34.770Z,4.00
2018-11-11T09:41:41.601Z,2.50
2018-11-11T09:42:48.365Z,3.60
2018-11-11T09:43:55.275Z,6.30
2018-11-11T09:45:02.128Z,4.70
2018-11-11T09:46:09.202Z,5.10
2018-11-11T09:47:16.034Z,4.00
2018-11-11T09:48:22.963Z,4.30
2018-11-11T09:49:29.766Z,2.70
2018-11-11T09:50:36.850Z,5.50
2018-11-11T09:51:44.194Z,4.10
2018-11-11T09:52:51.063Z,2.40
2018-11-11T09:53:57.759Z,5.40
2018-11-11T09:55:05.301Z,7.50
2018-11-11T09:56:11.666Z,3.50
2018-11-11T09:57:17.988Z,5.30
2018-11-11T09:58:24.836Z,3.40
2018-11-11T09:59:31.796Z,7.00
2018-11-11T10:00:38.682Z,4.80
2018-11-11T10:01:45.525Z,5.50
2018-11-11T10:02:52.419Z,8.00
2018-11-11T10:03:59.546Z,3.40
2018-11-11T10:05:06.595Z,3.50
2018-11-11T10:06:13.668Z,3.10
2018-11-11T10:07:20.575Z,4.40
2018-11-11T10:08:27.657Z,6.80
2018-11-11T10:09:34.732Z,6.50
2018-11-11T10:11:48.218Z,6.60
2018-11-11T10:14:00.934Z,3.80
2018-11-11T10:15:08.063Z,3.90
2018-11-11T10:16:15.079Z,4.90
2018-11-11T10:17:21.967Z,6.80
2018-11-11T10:18:28.991Z,3.40
2018-11-11T10:19:35.749Z,2.70
2018-11-11T10:20:52.402Z,3.50
2018-11-11T10:21:59.411Z,4.10
2018-11-11T10:23:05.379Z,4.40
2018-11-11T10:24:12.369Z,3.80
2018-11-11T10:25:19.312Z,4.10
2018-11-11T10:26:26.373Z,5.20
2018-11-11T10:27:33.002Z,3.90
2018-11-11T10:28:39.918Z,2.30
2018-11-11T10:29:47.081Z,6.90
2018-11-11T10:30:54.097Z,5.20
2018-11-11T10:32:00.994Z,3.00
2018-11-11T10:33:07.740Z,7.40
2018-11-11T10:34:14.660Z,5.40
2018-11-11T10:35:21.566Z,7.30
2018-11-11T10:36:28.143Z,4.80
2018-11-11T10:37:35.134Z,4.80
2018-11-11T10:38:41.733Z,5.10
2018-11-11T10:39:48.474Z,3.50
2018-11-11T10:40:55.845Z,4.60
2018-11-11T10:42:02.087Z,6.20
2018-11-11T10:43:10.206Z,5.10
2018-11-11T10:44:18.327Z,4.50
2018-11-11T10:45:25.163Z,3.30
2018-11-11T10:46:31.798Z,4.80
2018-11-11T10:47:38.847Z,6.20
2018-11-11T10:48:45.455Z,6.30
2018-11-11T10:49:52.429Z,7.60
2018-11-11T10:50:59.299Z,2.60
2018-11-11T10:52:06.903Z,5.00
2018-11-11T10:53:13.230Z,3.50
2018-11-11T10:54:20.115Z,3.10
2018-11-11T10:55:26.990Z,4.80
2018-11-11T10:56:33.838Z,3.40
2018-11-11T10:57:40.806Z,2.60
2018-11-11T10:58:47.646Z,3.60
2018-11-11T10:59:54.494Z,5.60
2018-11-11T11:01:01.639Z,3.90
2018-11-11T11:02:08.513Z,6.40
2018-11-11T11:03:15.331Z,2.70
2018-11-11T11:04:22.287Z,9.80
2018-11-11T11:05:29.115Z,4.50
2018-11-11T11:06:35.891Z,7.20
2018-11-11T11:07:42.844Z,5.70
2018-11-11T11:08:49.616Z,4.60
2018-11-11T11:09:56.942Z,3.30
2018-11-11T11:11:03.214Z,5.60
2018-11-11T11:12:10.324Z,5.40
2018-11-11T11:13:16.812Z,3.00
2018-11-11T11:14:23.566Z,4.90
2018-11-11T11:15:30.386Z,6.30
2018-11-11T11:16:38.205Z,5.80
2018-11-11T11:17:44.142Z,8.60
2018-11-11T11:18:50.946Z,3.00
2018-11-11T11:19:58.967Z,3.70
2018-11-11T11:21:04.751Z,5.60
2018-11-11T11:22:11.584Z,6.00
2018-11-11T11:23:18.352Z,8.10
2018-11-11T11:24:25.194Z,4.90
2018-11-11T11:25:32.025Z,6.10
2018-11-11T11:26:38.755Z,4.60
2018-11-11T11:27:45.736Z,4.30
2018-11-11T11:28:52.488Z,6.70
2018-11-11T11:29:59.362Z,5.50
2018-11-11T11:31:06.167Z,6.90
2018-11-11T11:32:13.048Z,5.30
2018-11-11T11:33:19.761Z,5.70
2018-11-11T11:34:26.578Z,4.40
2018-11-11T11:35:33.382Z,3.10
2018-11-11T11:36:41.279Z,3.50
2018-11-11T11:37:47.098Z,6.10
2018-11-11T11:38:53.926Z,10.10
2018-11-11T11:40:01.371Z,6.20
2018-11-11T11:41:07.714Z,3.10
2018-11-11T11:42:14.446Z,8.70
2018-11-11T11:43:21.186Z,4.80
2018-11-11T11:44:27.950Z,4.60
2018-11-11T11:45:34.734Z,5.60
2018-11-11T11:46:41.505Z,5.60
2018-11-11T11:47:51.774Z,3.70
2018-11-11T11:48:56.450Z,5.10
2018-11-11T11:50:02.572Z,5.10
2018-11-11T11:51:09.769Z,3.40
2018-11-11T11:52:17.017Z,3.20
2018-11-11T11:53:23.833Z,6.10
2018-11-11T11:54:30.678Z,3.40
2018-11-11T11:55:40.149Z,2.50
2018-11-11T11:56:44.617Z,5.00
2018-11-11T11:57:51.382Z,3.40
2018-11-11T11:58:58.440Z,5.30
2018-11-11T12:00:05.200Z,3.90
2018-11-11T12:01:12.354Z,4.50
2018-11-11T12:02:19.341Z,3.70
2018-11-11T12:03:26.299Z,3.30
2018-11-11T12:04:33.198Z,6.50
2018-11-11T12:05:40.006Z,4.60
2018-11-11T12:06:46.874Z,5.40
2018-11-11T12:07:54.009Z,6.10
2018-11-11T12:09:03.186Z,5.40
2018-11-11T12:10:07.775Z,8.30
2018-11-11T12:11:14.692Z,3.50
2018-11-11T12:12:21.566Z,5.20
2018-11-11T12:13:29.362Z,3.50
2018-11-11T12:14:35.279Z,2.60
2018-11-11T12:15:42.239Z,6.50
2018-11-11T12:16:49.356Z,2.70
2018-11-11T12:17:56.220Z,5.50
2018-11-11T12:19:03.051Z,4.90
2018-11-11T12:20:09.758Z,4.20
2018-11-11T12:21:16.619Z,4.20
2018-11-11T12:22:23.478Z,5.70
2018-11-11T12:23:30.387Z,5.30
2018-11-11T12:24:37.162Z,4.40
2018-11-11T12:25:43.980Z,5.90
2018-11-11T12:26:50.784Z,4.00
2018-11-11T12:27:57.653Z,6.00
2018-11-11T12:29:04.423Z,5.60
2018-11-11T12:30:11.316Z,3.20
2018-11-11T12:31:18.160Z,7.00
2018-11-11T12:32:25.011Z,2.70
2018-11-11T12:33:31.847Z,5.60
2018-11-11T12:34:38.718Z,2.40
2018-11-11T12:35:45.563Z,2.60
2018-11-11T12:36:52.366Z,5.80
2018-11-11T12:37:59.216Z,4.70
2018-11-11T12:39:06.010Z,7.00
2018-11-11T12:40:12.985Z,4.30
2018-11-11T12:41:19.830Z,3.30
2018-11-11T12:42:26.706Z,3.30
2018-11-11T12:43:33.542Z,3.20
2018-11-11T12:44:40.503Z,5.40
2018-11-11T12:45:47.348Z,4.40
2018-11-11T12:46:54.248Z,7.20
2018-11-11T12:48:00.983Z,5.40
2018-11-11T12:49:08.055Z,7.40
2018-11-11T12:50:14.951Z,3.00
2018-11-11T12:51:21.827Z,3.20
2018-11-11T12:52:28.810Z,6.30
2018-11-11T12:53:35.669Z,6.50
2018-11-11T12:54:42.555Z,5.80
2018-11-11T12:55:49.422Z,5.10
2018-11-11T12:56:56.286Z,4.40
2018-11-11T12:58:03.157Z,6.50
2018-11-11T12:59:10.045Z,5.30
2018-11-11T13:00:16.933Z,6.10
2018-11-11T13:01:23.763Z,4.10
2018-11-11T13:02:30.772Z,5.10
2018-11-11T13:03:37.691Z,7.50
2018-11-11T13:04:44.606Z,5.00
2018-11-11T13:05:51.376Z,6.90
2018-11-11T13:06:58.256Z,5.30
2018-11-11T13:08:05.138Z,6.60
2018-11-11T13:09:12.033Z,5.90
2018-11-11T13:10:18.846Z,3.90
2018-11-11T13:11:25.734Z,3.30
2018-11-11T13:12:32.571Z,7.20
2018-11-11T13:13:39.393Z,4.80
2018-11-11T13:14:46.223Z,5.00
2018-11-11T13:15:53.097Z,6.00
2018-11-11T13:16:59.964Z,6.90
2018-11-11T13:18:06.838Z,4.30
2018-11-11T13:19:13.750Z,6.10
2018-11-11T13:20:20.612Z,4.30
2018-11-11T13:21:27.498Z,8.30
2018-11-11T13:22:34.411Z,5.60
2018-11-11T13:23:41.274Z,6.10
2018-11-11T13:24:48.205Z,5.30
2018-11-11T13:25:56.883Z,5.00
2018-11-11T13:27:01.895Z,5.30
2018-11-11T13:28:08.762Z,3.30
2018-11-11T13:29:15.605Z,6.00
2018-11-11T13:30:22.533Z,4.40
2018-11-11T13:31:29.371Z,4.20
2018-11-11T13:32:36.300Z,6.10
2018-11-11T13:33:43.454Z,7.30
2018-11-11T13:34:50.281Z,4.60
2018-11-11T13:35:57.076Z,4.00
2018-11-11T13:37:03.935Z,8.30
2018-11-11T13:38:10.829Z,3.10
2018-11-11T13:39:17.646Z,3.90
2018-11-11T13:40:24.455Z,3.90
2018-11-11T13:41:31.584Z,5.10
2018-11-11T13:42:38.632Z,5.40
2018-11-11T13:43:45.526Z,5.20
2018-11-11T13:44:52.351Z,5.20
2018-11-11T13:45:59.194Z,6.10
2018-11-11T13:47:06.085Z,2.50
2018-11-11T13:48:12.932Z,6.50
2018-11-11T13:49:19.751Z,4.40
2018-11-11T13:50:26.574Z,3.80
2018-11-11T13:51:33.324Z,4.60
2018-11-11T13:52:40.231Z,5.60
2018-11-11T13:53:47.221Z,4.60
2018-11-11T13:54:54.184Z,5.30
2018-11-11T13:56:01.168Z,6.90
2018-11-11T13:57:08.068Z,3.90
2018-11-11T13:58:15.062Z,5.40
2018-11-11T13:59:21.823Z,2.70
2018-11-11T14:00:28.666Z,8.60
2018-11-11T14:01:35.527Z,6.70
2018-11-11T14:02:42.373Z,4.80
2018-11-11T14:03:49.141Z,5.80
2018-11-11T14:04:55.900Z,2.60
2018-11-11T14:06:02.766Z,3.80
2018-11-11T14:07:09.487Z,3.50
2018-11-11T14:08:16.343Z,6.20
2018-11-11T14:09:23.028Z,5.80
2018-11-11T14:10:29.850Z,5.40
2018-11-11T14:11:36.600Z,3.60
2018-11-11T14:12:43.371Z,6.70
2018-11-11T14:13:50.253Z,7.70
2018-11-11T14:14:58.009Z,2.80
2018-11-11T14:16:03.819Z,2.90
2018-11-11T14:17:10.609Z,2.60
2018-11-11T14:18:17.525Z,3.40
2018-11-11T14:19:24.313Z,4.60
2018-11-11T14:20:30.940Z,6.10
2018-11-11T14:21:37.681Z,5.10
2018-11-11T14:22:44.412Z,4.30
2018-11-11T14:23:51.194Z,6.50
2018-11-11T14:24:57.928Z,5.60
2018-11-11T14:26:04.743Z,6.70
2018-11-11T14:27:11.487Z,5.70
2018-11-11T14:28:18.210Z,5.10
2018-11-11T14:29:24.968Z,2.90
2018-11-11T14:30:31.758Z,5.50
2018-11-11T14:31:38.526Z,10.00
2018-11-11T14:32:45.449Z,12.20
2018-11-11T14:33:52.471Z,13.00
2018-11-11T14:34:59.287Z,22.50
2018-11-11T14:36:06.062Z,16.20
2018-11-11T14:37:12.822Z,16.80
2018-11-11T14:38:19.717Z,16.20
2018-11-11T14:39:27.257Z,15.30
2018-11-11T14:40:33.530Z,15.80
2018-11-11T14:41:40.303Z,10.80
2018-11-11T14:42:46.985Z,14.40
2018-11-11T14:43:53.838Z,9.40
2018-11-11T14:45:00.602Z,9.60
2018-11-11T14:46:07.579Z,7.00
2018-11-11T14:47:14.240Z,8.70
2018-11-11T14:48:21.034Z,9.20
2018-11-11T14:49:27.790Z,6.10
2018-11-11T14:50:34.647Z,7.20
2018-11-11T14:51:41.426Z,9.60